sensor_id;sensor_type;location;lat;lon;timestamp;P1;durP1;ratioP1;P2;durP2;ratioP2
4521;SDS011;2273;48.464;11.926;2022-09-03T00:00:50;7.93;;;4.40;;
4521;SDS011;2273;48.464;11.926;2022-09-03T00:03:25;4.47;;;4.07;;
4521;SDS011;2273;48.464;11.926;2022-09-03T00:06:08;6.33;;;4.83;;
4521;SDS011;2273;48.464;11.926;2022-09-03T00:13:58;10.73;;;4.93;;
4521;SDS011;2273;48.464;11.926;2022-09-03T00:16:45;6.80;;;4.23;;
4521;SDS011;2273;48.464;11.926;2022-09-03T00:19:18;5.93;;;4.13;;
4521;SDS011;2273;48.464;11.926;2022-09-03T00:21:47;6.90;;;4.37;;
4521;SDS011;2273;48.464;11.926;2022-09-03T00:24:16;6.37;;;3.93;;
4521;SDS011;2273;48.464;11.926;2022-09-03T00:26:44;6.80;;;4.70;;
4521;SDS011;2273;48.464;11.926;2022-09-03T00:29:16;8.53;;;4.70;;
4521;SDS011;2273;48.464;11.926;2022-09-03T00:31:55;5.40;;;3.90;;
4521;SDS011;2273;48.464;11.926;2022-09-03T00:34:30;9.93;;;4.73;;
4521;SDS011;2273;48.464;11.926;2022-09-03T00:36:58;5.60;;;4.00;;
4521;SDS011;2273;48.464;11.926;2022-09-03T00:39:24;7.60;;;4.90;;
4521;SDS011;2273;48.464;11.926;2022-09-03T00:53:01;6.33;;;4.37;;
4521;SDS011;2273;48.464;11.926;2022-09-03T01:01:00;11.27;;;4.83;;
4521;SDS011;2273;48.464;11.926;2022-09-03T01:03:39;7.40;;;4.50;;
4521;SDS011;2273;48.464;11.926;2022-09-03T01:09:32;6.10;;;3.83;;
4521;SDS011;2273;48.464;11.926;2022-09-03T01:34:11;5.67;;;5.00;;
4521;SDS011;2273;48.464;11.926;2022-09-03T01:36:46;4.80;;;4.23;;
4521;SDS011;2273;48.464;11.926;2022-09-03T01:39:31;10.17;;;5.23;;
4521;SDS011;2273;48.464;11.926;2022-09-03T01:42:18;12.00;;;4.67;;
4521;SDS011;2273;48.464;11.926;2022-09-03T01:48:34;11.83;;;4.17;;
4521;SDS011;2273;48.464;11.926;2022-09-03T01:51:23;9.53;;;4.50;;
4521;SDS011;2273;48.464;11.926;2022-09-03T01:54:09;6.33;;;4.87;;
4521;SDS011;2273;48.464;11.926;2022-09-03T01:59:43;5.70;;;4.30;;
4521;SDS011;2273;48.464;11.926;2022-09-03T02:02:24;4.90;;;4.07;;
4521;SDS011;2273;48.464;11.926;2022-09-03T02:04:59;5.43;;;4.20;;
4521;SDS011;2273;48.464;11.926;2022-09-03T02:08:18;14.63;;;4.30;;
4521;SDS011;2273;48.464;11.926;2022-09-03T02:10:28;7.60;;;5.13;;
4521;SDS011;2273;48.464;11.926;2022-09-03T02:13:04;8.93;;;4.73;;
4521;SDS011;2273;48.464;11.926;2022-09-03T02:15:32;7.30;;;4.67;;
4521;SDS011;2273;48.464;11.926;2022-09-03T02:18:00;5.33;;;4.53;;
4521;SDS011;2273;48.464;11.926;2022-09-03T02:20:28;6.30;;;4.70;;
4521;SDS011;2273;48.464;11.926;2022-09-03T02:22:55;5.40;;;4.20;;
4521;SDS011;2273;48.464;11.926;2022-09-03T02:25:22;6.17;;;5.10;;
4521;SDS011;2273;48.464;11.926;2022-09-03T02:27:49;6.27;;;5.13;;
4521;SDS011;2273;48.464;11.926;2022-09-03T02:30:15;8.37;;;5.07;;
4521;SDS011;2273;48.464;11.926;2022-09-03T02:32:42;5.07;;;4.57;;
4521;SDS011;2273;48.464;11.926;2022-09-03T02:35:08;5.27;;;3.93;;
4521;SDS011;2273;48.464;11.926;2022-09-03T02:37:34;6.83;;;4.83;;
4521;SDS011;2273;48.464;11.926;2022-09-03T02:39:59;7.23;;;4.67;;
4521;SDS011;2273;48.464;11.926;2022-09-03T02:42:25;8.30;;;4.30;;
4521;SDS011;2273;48.464;11.926;2022-09-03T02:44:56;5.10;;;4.00;;
4521;SDS011;2273;48.464;11.926;2022-09-03T02:47:27;9.17;;;4.27;;
4521;SDS011;2273;48.464;11.926;2022-09-03T02:49:56;5.50;;;4.63;;
4521;SDS011;2273;48.464;11.926;2022-09-03T02:52:21;5.67;;;4.90;;
4521;SDS011;2273;48.464;11.926;2022-09-03T02:54:47;13.73;;;5.27;;
4521;SDS011;2273;48.464;11.926;2022-09-03T02:57:13;7.00;;;4.87;;
4521;SDS011;2273;48.464;11.926;2022-09-03T02:59:40;7.60;;;4.53;;
4521;SDS011;2273;48.464;11.926;2022-09-03T03:02:08;7.00;;;4.27;;
4521;SDS011;2273;48.464;11.926;2022-09-03T03:04:34;6.40;;;4.80;;
4521;SDS011;2273;48.464;11.926;2022-09-03T03:06:59;7.43;;;5.20;;
4521;SDS011;2273;48.464;11.926;2022-09-03T03:09:24;5.07;;;4.43;;
4521;SDS011;2273;48.464;11.926;2022-09-03T03:11:50;13.03;;;5.40;;
4521;SDS011;2273;48.464;11.926;2022-09-03T03:14:16;13.20;;;5.13;;
4521;SDS011;2273;48.464;11.926;2022-09-03T03:16:42;6.00;;;4.53;;
4521;SDS011;2273;48.464;11.926;2022-09-03T03:19:08;10.90;;;4.67;;
4521;SDS011;2273;48.464;11.926;2022-09-03T03:21:33;9.00;;;4.40;;
4521;SDS011;2273;48.464;11.926;2022-09-03T03:24:00;7.27;;;4.97;;
4521;SDS011;2273;48.464;11.926;2022-09-03T03:26:26;5.53;;;5.00;;
4521;SDS011;2273;48.464;11.926;2022-09-03T03:28:54;5.67;;;5.07;;
4521;SDS011;2273;48.464;11.926;2022-09-03T03:31:21;6.13;;;5.23;;
4521;SDS011;2273;48.464;11.926;2022-09-03T03:33:51;7.73;;;5.50;;
4521;SDS011;2273;48.464;11.926;2022-09-03T03:36:17;6.63;;;4.80;;
4521;SDS011;2273;48.464;11.926;2022-09-03T03:38:43;7.17;;;5.23;;
4521;SDS011;2273;48.464;11.926;2022-09-03T03:41:16;8.50;;;4.70;;
4521;SDS011;2273;48.464;11.926;2022-09-03T03:43:43;6.70;;;5.20;;
4521;SDS011;2273;48.464;11.926;2022-09-03T03:46:08;9.93;;;4.47;;
4521;SDS011;2273;48.464;11.926;2022-09-03T03:48:34;10.83;;;5.27;;
4521;SDS011;2273;48.464;11.926;2022-09-03T03:51:05;5.57;;;5.07;;
4521;SDS011;2273;48.464;11.926;2022-09-03T03:53:32;7.00;;;4.80;;
4521;SDS011;2273;48.464;11.926;2022-09-03T03:55:59;6.03;;;5.40;;
4521;SDS011;2273;48.464;11.926;2022-09-03T03:58:29;6.37;;;4.97;;
4521;SDS011;2273;48.464;11.926;2022-09-03T04:01:03;7.00;;;4.43;;
4521;SDS011;2273;48.464;11.926;2022-09-03T04:03:29;7.30;;;5.47;;
4521;SDS011;2273;48.464;11.926;2022-09-03T04:05:55;6.63;;;5.43;;
4521;SDS011;2273;48.464;11.926;2022-09-03T04:08:23;8.13;;;5.60;;
4521;SDS011;2273;48.464;11.926;2022-09-03T04:10:48;6.37;;;5.23;;
4521;SDS011;2273;48.464;11.926;2022-09-03T04:13:14;6.67;;;5.60;;
4521;SDS011;2273;48.464;11.926;2022-09-03T04:15:39;5.80;;;4.60;;
4521;SDS011;2273;48.464;11.926;2022-09-03T04:18:06;5.00;;;4.33;;
4521;SDS011;2273;48.464;11.926;2022-09-03T04:20:32;7.77;;;5.47;;
4521;SDS011;2273;48.464;11.926;2022-09-03T04:22:59;6.07;;;4.83;;
4521;SDS011;2273;48.464;11.926;2022-09-03T04:25:25;8.13;;;4.47;;
4521;SDS011;2273;48.464;11.926;2022-09-03T04:27:51;7.37;;;4.67;;
4521;SDS011;2273;48.464;11.926;2022-09-03T04:30:17;6.17;;;5.03;;
4521;SDS011;2273;48.464;11.926;2022-09-03T04:32:43;13.23;;;4.80;;
4521;SDS011;2273;48.464;11.926;2022-09-03T04:35:25;11.90;;;5.30;;
4521;SDS011;2273;48.464;11.926;2022-09-03T04:37:56;22.37;;;5.70;;
4521;SDS011;2273;48.464;11.926;2022-09-03T04:40:22;6.57;;;5.30;;
4521;SDS011;2273;48.464;11.926;2022-09-03T04:42:47;6.37;;;5.53;;
4521;SDS011;2273;48.464;11.926;2022-09-03T04:45:13;8.80;;;5.50;;
4521;SDS011;2273;48.464;11.926;2022-09-03T04:47:42;7.10;;;5.37;;
4521;SDS011;2273;48.464;11.926;2022-09-03T04:50:11;9.13;;;5.40;;
4521;SDS011;2273;48.464;11.926;2022-09-03T04:52:37;6.30;;;5.20;;
4521;SDS011;2273;48.464;11.926;2022-09-03T04:55:03;8.23;;;5.60;;
4521;SDS011;2273;48.464;11.926;2022-09-03T04:57:28;7.67;;;5.90;;
4521;SDS011;2273;48.464;11.926;2022-09-03T04:59:59;7.43;;;5.97;;
4521;SDS011;2273;48.464;11.926;2022-09-03T05:02:24;8.43;;;5.10;;
4521;SDS011;2273;48.464;11.926;2022-09-03T05:04:50;7.17;;;5.20;;
4521;SDS011;2273;48.464;11.926;2022-09-03T05:07:16;6.80;;;5.00;;
4521;SDS011;2273;48.464;11.926;2022-09-03T05:09:45;6.60;;;5.63;;
4521;SDS011;2273;48.464;11.926;2022-09-03T05:12:10;8.20;;;5.20;;
4521;SDS011;2273;48.464;11.926;2022-09-03T05:14:37;7.30;;;5.50;;
4521;SDS011;2273;48.464;11.926;2022-09-03T05:17:03;9.87;;;5.40;;
4521;SDS011;2273;48.464;11.926;2022-09-03T05:19:28;10.43;;;5.37;;
4521;SDS011;2273;48.464;11.926;2022-09-03T05:21:53;5.70;;;4.70;;
4521;SDS011;2273;48.464;11.926;2022-09-03T05:24:19;8.50;;;5.50;;
4521;SDS011;2273;48.464;11.926;2022-09-03T05:26:45;5.37;;;4.87;;
4521;SDS011;2273;48.464;11.926;2022-09-03T05:29:10;7.07;;;4.97;;
4521;SDS011;2273;48.464;11.926;2022-09-03T05:31:36;6.87;;;4.73;;
4521;SDS011;2273;48.464;11.926;2022-09-03T05:34:03;7.40;;;4.67;;
4521;SDS011;2273;48.464;11.926;2022-09-03T05:36:30;5.77;;;4.90;;
4521;SDS011;2273;48.464;11.926;2022-09-03T05:38:58;7.30;;;5.60;;
4521;SDS011;2273;48.464;11.926;2022-09-03T05:41:24;6.53;;;4.53;;
4521;SDS011;2273;48.464;11.926;2022-09-03T05:43:51;6.67;;;5.00;;
4521;SDS011;2273;48.464;11.926;2022-09-03T05:46:20;5.23;;;4.60;;
4521;SDS011;2273;48.464;11.926;2022-09-03T05:48:47;5.67;;;4.93;;
4521;SDS011;2273;48.464;11.926;2022-09-03T05:51:13;5.60;;;5.00;;
4521;SDS011;2273;48.464;11.926;2022-09-03T05:53:45;8.30;;;5.40;;
4521;SDS011;2273;48.464;11.926;2022-09-03T05:56:13;5.50;;;4.40;;
4521;SDS011;2273;48.464;11.926;2022-09-03T05:58:43;5.27;;;4.77;;
4521;SDS011;2273;48.464;11.926;2022-09-03T06:01:19;5.93;;;4.33;;
4521;SDS011;2273;48.464;11.926;2022-09-03T06:03:52;5.40;;;4.40;;
4521;SDS011;2273;48.464;11.926;2022-09-03T06:06:19;5.30;;;4.50;;
4521;SDS011;2273;48.464;11.926;2022-09-03T06:08:52;5.30;;;4.80;;
4521;SDS011;2273;48.464;11.926;2022-09-03T06:11:19;5.17;;;4.40;;
4521;SDS011;2273;48.464;11.926;2022-09-03T06:13:45;5.80;;;4.00;;
4521;SDS011;2273;48.464;11.926;2022-09-03T06:16:11;6.97;;;4.50;;
4521;SDS011;2273;48.464;11.926;2022-09-03T06:18:36;5.47;;;4.10;;
4521;SDS011;2273;48.464;11.926;2022-09-03T06:21:03;4.20;;;3.77;;
4521;SDS011;2273;48.464;11.926;2022-09-03T06:23:30;4.90;;;3.80;;
4521;SDS011;2273;48.464;11.926;2022-09-03T06:26:03;4.83;;;4.23;;
4521;SDS011;2273;48.464;11.926;2022-09-03T06:28:33;4.93;;;4.40;;
4521;SDS011;2273;48.464;11.926;2022-09-03T06:31:00;4.83;;;4.17;;
4521;SDS011;2273;48.464;11.926;2022-09-03T06:33:27;7.13;;;3.93;;
4521;SDS011;2273;48.464;11.926;2022-09-03T06:35:57;4.63;;;4.10;;
4521;SDS011;2273;48.464;11.926;2022-09-03T06:38:24;4.17;;;3.77;;
4521;SDS011;2273;48.464;11.926;2022-09-03T06:40:51;5.13;;;4.63;;
4521;SDS011;2273;48.464;11.926;2022-09-03T06:43:20;5.93;;;4.53;;
4521;SDS011;2273;48.464;11.926;2022-09-03T06:45:59;8.47;;;4.37;;
4521;SDS011;2273;48.464;11.926;2022-09-03T06:48:26;4.70;;;4.00;;
4521;SDS011;2273;48.464;11.926;2022-09-03T06:50:54;5.50;;;4.40;;
4521;SDS011;2273;48.464;11.926;2022-09-03T06:53:27;4.53;;;3.70;;
4521;SDS011;2273;48.464;11.926;2022-09-03T06:56:00;4.50;;;4.10;;
4521;SDS011;2273;48.464;11.926;2022-09-03T06:58:33;5.13;;;4.23;;
4521;SDS011;2273;48.464;11.926;2022-09-03T07:01:05;5.07;;;4.50;;
4521;SDS011;2273;48.464;11.926;2022-09-03T07:03:32;7.17;;;3.97;;
4521;SDS011;2273;48.464;11.926;2022-09-03T07:05:59;5.00;;;4.17;;
4521;SDS011;2273;48.464;11.926;2022-09-03T07:08:25;6.17;;;4.33;;
4521;SDS011;2273;48.464;11.926;2022-09-03T07:10:51;4.53;;;4.13;;
4521;SDS011;2273;48.464;11.926;2022-09-03T07:13:17;5.13;;;3.93;;
4521;SDS011;2273;48.464;11.926;2022-09-03T07:15:43;10.53;;;5.00;;
4521;SDS011;2273;48.464;11.926;2022-09-03T07:18:08;5.10;;;3.97;;
4521;SDS011;2273;48.464;11.926;2022-09-03T07:20:34;5.50;;;4.90;;
4521;SDS011;2273;48.464;11.926;2022-09-03T07:23:00;5.30;;;4.53;;
4521;SDS011;2273;48.464;11.926;2022-09-03T07:25:25;7.10;;;3.97;;
4521;SDS011;2273;48.464;11.926;2022-09-03T07:27:51;5.50;;;4.50;;
4521;SDS011;2273;48.464;11.926;2022-09-03T07:30:17;8.30;;;5.20;;
4521;SDS011;2273;48.464;11.926;2022-09-03T07:32:44;5.60;;;4.40;;
4521;SDS011;2273;48.464;11.926;2022-09-03T07:35:11;4.67;;;3.90;;
4521;SDS011;2273;48.464;11.926;2022-09-03T07:37:39;5.37;;;4.10;;
4521;SDS011;2273;48.464;11.926;2022-09-03T07:40:07;10.23;;;4.97;;
4521;SDS011;2273;48.464;11.926;2022-09-03T07:42:34;7.03;;;4.03;;
4521;SDS011;2273;48.464;11.926;2022-09-03T07:45:00;9.63;;;4.00;;
4521;SDS011;2273;48.464;11.926;2022-09-03T07:47:29;5.63;;;4.60;;
4521;SDS011;2273;48.464;11.926;2022-09-03T07:49:56;5.10;;;4.50;;
4521;SDS011;2273;48.464;11.926;2022-09-03T07:52:21;6.33;;;4.23;;
4521;SDS011;2273;48.464;11.926;2022-09-03T07:54:47;4.40;;;3.97;;
4521;SDS011;2273;48.464;11.926;2022-09-03T07:57:12;5.40;;;4.90;;
4521;SDS011;2273;48.464;11.926;2022-09-03T07:59:38;6.93;;;4.10;;
4521;SDS011;2273;48.464;11.926;2022-09-03T08:02:03;5.20;;;4.67;;
4521;SDS011;2273;48.464;11.926;2022-09-03T08:04:30;5.33;;;4.43;;
4521;SDS011;2273;48.464;11.926;2022-09-03T08:06:57;7.43;;;4.73;;
4521;SDS011;2273;48.464;11.926;2022-09-03T08:09:24;5.83;;;4.47;;
4521;SDS011;2273;48.464;11.926;2022-09-03T08:11:49;6.70;;;4.20;;
4521;SDS011;2273;48.464;11.926;2022-09-03T08:14:15;8.50;;;5.03;;
4521;SDS011;2273;48.464;11.926;2022-09-03T08:16:41;6.03;;;4.60;;
4521;SDS011;2273;48.464;11.926;2022-09-03T08:19:08;7.83;;;4.53;;
4521;SDS011;2273;48.464;11.926;2022-09-03T08:21:36;5.57;;;4.60;;
4521;SDS011;2273;48.464;11.926;2022-09-03T08:24:01;5.23;;;4.00;;
4521;SDS011;2273;48.464;11.926;2022-09-03T08:26:31;5.27;;;4.67;;
4521;SDS011;2273;48.464;11.926;2022-09-03T08:28:57;6.90;;;5.20;;
4521;SDS011;2273;48.464;11.926;2022-09-03T08:31:24;6.20;;;4.40;;
4521;SDS011;2273;48.464;11.926;2022-09-03T08:33:51;5.93;;;4.73;;
4521;SDS011;2273;48.464;11.926;2022-09-03T08:36:19;16.60;;;5.17;;
4521;SDS011;2273;48.464;11.926;2022-09-03T08:38:49;5.03;;;4.53;;
4521;SDS011;2273;48.464;11.926;2022-09-03T08:46:48;7.83;;;5.10;;
4521;SDS011;2273;48.464;11.926;2022-09-03T08:52:06;9.77;;;4.00;;
4521;SDS011;2273;48.464;11.926;2022-09-03T08:54:42;5.40;;;4.63;;
4521;SDS011;2273;48.464;11.926;2022-09-03T08:57:08;7.87;;;5.00;;
4521;SDS011;2273;48.464;11.926;2022-09-03T08:59:34;6.93;;;5.10;;
4521;SDS011;2273;48.464;11.926;2022-09-03T09:02:21;6.40;;;3.87;;
4521;SDS011;2273;48.464;11.926;2022-09-03T09:04:58;8.37;;;4.73;;
4521;SDS011;2273;48.464;11.926;2022-09-03T09:07:36;5.23;;;4.10;;
4521;SDS011;2273;48.464;11.926;2022-09-03T09:10:19;6.20;;;4.30;;
4521;SDS011;2273;48.464;11.926;2022-09-03T09:13:06;8.23;;;4.53;;
4521;SDS011;2273;48.464;11.926;2022-09-03T09:18:38;7.33;;;4.47;;
4521;SDS011;2273;48.464;11.926;2022-09-03T09:21:15;12.30;;;5.07;;
4521;SDS011;2273;48.464;11.926;2022-09-03T09:23:43;5.00;;;4.43;;
4521;SDS011;2273;48.464;11.926;2022-09-03T09:26:13;7.73;;;5.67;;
4521;SDS011;2273;48.464;11.926;2022-09-03T09:28:40;6.80;;;4.93;;
4521;SDS011;2273;48.464;11.926;2022-09-03T09:31:06;7.60;;;5.60;;
4521;SDS011;2273;48.464;11.926;2022-09-03T09:33:36;15.63;;;4.83;;
4521;SDS011;2273;48.464;11.926;2022-09-03T09:36:03;6.97;;;4.50;;
4521;SDS011;2273;48.464;11.926;2022-09-03T09:38:33;8.47;;;5.37;;
4521;SDS011;2273;48.464;11.926;2022-09-03T09:41:09;7.30;;;4.77;;
4521;SDS011;2273;48.464;11.926;2022-09-03T09:43:36;9.13;;;5.27;;
4521;SDS011;2273;48.464;11.926;2022-09-03T09:46:21;6.50;;;4.90;;
4521;SDS011;2273;48.464;11.926;2022-09-03T09:48:50;6.47;;;5.03;;
4521;SDS011;2273;48.464;11.926;2022-09-03T09:51:21;6.93;;;5.20;;
4521;SDS011;2273;48.464;11.926;2022-09-03T09:53:58;6.60;;;5.63;;
4521;SDS011;2273;48.464;11.926;2022-09-03T09:56:44;6.10;;;5.07;;
4521;SDS011;2273;48.464;11.926;2022-09-03T09:59:11;5.80;;;5.07;;
4521;SDS011;2273;48.464;11.926;2022-09-03T10:01:38;8.00;;;5.70;;
4521;SDS011;2273;48.464;11.926;2022-09-03T10:04:08;12.57;;;5.80;;
4521;SDS011;2273;48.464;11.926;2022-09-03T10:06:34;5.03;;;4.53;;
4521;SDS011;2273;48.464;11.926;2022-09-03T10:09:22;10.43;;;5.80;;
4521;SDS011;2273;48.464;11.926;2022-09-03T10:14:35;10.70;;;6.00;;
4521;SDS011;2273;48.464;11.926;2022-09-03T10:17:08;8.60;;;5.43;;
4521;SDS011;2273;48.464;11.926;2022-09-03T10:22:49;6.23;;;4.93;;
4521;SDS011;2273;48.464;11.926;2022-09-03T10:25:19;13.87;;;5.10;;
4521;SDS011;2273;48.464;11.926;2022-09-03T10:27:45;5.03;;;4.50;;
4521;SDS011;2273;48.464;11.926;2022-09-03T10:30:11;6.37;;;5.60;;
4521;SDS011;2273;48.464;11.926;2022-09-03T10:35:23;10.93;;;6.33;;
4521;SDS011;2273;48.464;11.926;2022-09-03T10:48:42;10.33;;;4.80;;
4521;SDS011;2273;48.464;11.926;2022-09-03T10:51:15;6.60;;;3.73;;
4521;SDS011;2273;48.464;11.926;2022-09-03T10:53:54;8.13;;;4.07;;
4521;SDS011;2273;48.464;11.926;2022-09-03T10:56:29;6.27;;;3.90;;
4521;SDS011;2273;48.464;11.926;2022-09-03T11:01:35;11.73;;;4.70;;
4521;SDS011;2273;48.464;11.926;2022-09-03T11:04:15;7.60;;;4.17;;
4521;SDS011;2273;48.464;11.926;2022-09-03T11:07:02;11.03;;;4.10;;
4521;SDS011;2273;48.464;11.926;2022-09-03T11:12:32;5.33;;;3.70;;
4521;SDS011;2273;48.464;11.926;2022-09-03T11:15:02;4.00;;;3.40;;
4521;SDS011;2273;48.464;11.926;2022-09-03T11:17:33;5.90;;;3.93;;
4521;SDS011;2273;48.464;11.926;2022-09-03T11:22:34;9.43;;;3.63;;
4521;SDS011;2273;48.464;11.926;2022-09-03T11:25:00;3.70;;;3.40;;
4521;SDS011;2273;48.464;11.926;2022-09-03T11:37:59;4.30;;;3.20;;
4521;SDS011;2273;48.464;11.926;2022-09-03T11:40:31;5.23;;;3.00;;
4521;SDS011;2273;48.464;11.926;2022-09-03T11:43:05;6.37;;;2.83;;
4521;SDS011;2273;48.464;11.926;2022-09-03T11:47:57;3.43;;;3.13;;
4521;SDS011;2273;48.464;11.926;2022-09-03T11:50:32;4.17;;;2.90;;
4521;SDS011;2273;48.464;11.926;2022-09-03T11:53:09;4.63;;;2.97;;
4521;SDS011;2273;48.464;11.926;2022-09-03T11:55:52;2.80;;;2.60;;
4521;SDS011;2273;48.464;11.926;2022-09-03T11:58:25;3.00;;;2.67;;
4521;SDS011;2273;48.464;11.926;2022-09-03T12:00:53;7.90;;;3.17;;
4521;SDS011;2273;48.464;11.926;2022-09-03T12:03:34;4.10;;;3.00;;
4521;SDS011;2273;48.464;11.926;2022-09-03T12:06:48;2.70;;;2.50;;
4521;SDS011;2273;48.464;11.926;2022-09-03T12:12:02;3.40;;;2.90;;
4521;SDS011;2273;48.464;11.926;2022-09-03T12:14:32;9.33;;;2.70;;
4521;SDS011;2273;48.464;11.926;2022-09-03T12:17:15;3.83;;;3.03;;
4521;SDS011;2273;48.464;11.926;2022-09-03T12:22:13;9.40;;;2.93;;
4521;SDS011;2273;48.464;11.926;2022-09-03T12:24:40;4.80;;;3.10;;
4521;SDS011;2273;48.464;11.926;2022-09-03T12:27:09;2.97;;;2.60;;
4521;SDS011;2273;48.464;11.926;2022-09-03T12:29:48;8.23;;;2.57;;
4521;SDS011;2273;48.464;11.926;2022-09-03T12:32:15;4.63;;;3.07;;
4521;SDS011;2273;48.464;11.926;2022-09-03T12:34:42;7.77;;;2.60;;
4521;SDS011;2273;48.464;11.926;2022-09-03T12:37:21;5.80;;;2.90;;
4521;SDS011;2273;48.464;11.926;2022-09-03T12:39:52;3.57;;;2.90;;
4521;SDS011;2273;48.464;11.926;2022-09-03T12:42:25;3.47;;;2.87;;
4521;SDS011;2273;48.464;11.926;2022-09-03T12:44:52;3.17;;;2.73;;
4521;SDS011;2273;48.464;11.926;2022-09-03T12:47:19;3.20;;;2.80;;
4521;SDS011;2273;48.464;11.926;2022-09-03T12:49:47;3.87;;;2.73;;
4521;SDS011;2273;48.464;11.926;2022-09-03T12:52:24;4.30;;;3.13;;
4521;SDS011;2273;48.464;11.926;2022-09-03T12:54:55;3.70;;;3.40;;
4521;SDS011;2273;48.464;11.926;2022-09-03T12:57:32;4.80;;;2.90;;
4521;SDS011;2273;48.464;11.926;2022-09-03T13:00:07;5.73;;;2.80;;
4521;SDS011;2273;48.464;11.926;2022-09-03T13:02:44;3.80;;;3.17;;
4521;SDS011;2273;48.464;11.926;2022-09-03T13:05:16;5.00;;;3.53;;
4521;SDS011;2273;48.464;11.926;2022-09-03T13:07:48;7.27;;;3.03;;
4521;SDS011;2273;48.464;11.926;2022-09-03T13:10:26;3.10;;;2.80;;
4521;SDS011;2273;48.464;11.926;2022-09-03T13:12:57;3.03;;;2.73;;
4521;SDS011;2273;48.464;11.926;2022-09-03T13:15:24;2.93;;;2.63;;
4521;SDS011;2273;48.464;11.926;2022-09-03T13:23:28;6.27;;;2.47;;
4521;SDS011;2273;48.464;11.926;2022-09-03T13:26:19;7.73;;;2.80;;
4521;SDS011;2273;48.464;11.926;2022-09-03T13:28:55;4.90;;;2.50;;
4521;SDS011;2273;48.464;11.926;2022-09-03T13:31:49;4.23;;;2.60;;
4521;SDS011;2273;48.464;11.926;2022-09-03T13:34:31;4.33;;;2.83;;
4521;SDS011;2273;48.464;11.926;2022-09-03T13:37:46;2.70;;;2.40;;
4521;SDS011;2273;48.464;11.926;2022-09-03T13:40:11;3.60;;;2.50;;
4521;SDS011;2273;48.464;11.926;2022-09-03T13:42:40;3.13;;;2.23;;
4521;SDS011;2273;48.464;11.926;2022-09-03T13:45:14;3.47;;;2.20;;
4521;SDS011;2273;48.464;11.926;2022-09-03T13:51:10;2.80;;;2.20;;
4521;SDS011;2273;48.464;11.926;2022-09-03T13:58:55;4.03;;;2.03;;
4521;SDS011;2273;48.464;11.926;2022-09-03T14:04:50;2.57;;;2.07;;
4521;SDS011;2273;48.464;11.926;2022-09-03T14:07:23;2.37;;;2.17;;
4521;SDS011;2273;48.464;11.926;2022-09-03T14:10:02;2.27;;;2.07;;
4521;SDS011;2273;48.464;11.926;2022-09-03T14:12:43;2.20;;;2.00;;
4521;SDS011;2273;48.464;11.926;2022-09-03T14:15:25;3.50;;;2.47;;
4521;SDS011;2273;48.464;11.926;2022-09-03T14:20:57;2.30;;;2.00;;
4521;SDS011;2273;48.464;11.926;2022-09-03T14:23:32;4.17;;;2.10;;
4521;SDS011;2273;48.464;11.926;2022-09-03T14:26:14;2.60;;;1.90;;
4521;SDS011;2273;48.464;11.926;2022-09-03T14:28:43;2.50;;;1.93;;
4521;SDS011;2273;48.464;11.926;2022-09-03T14:39:11;7.73;;;2.30;;
4521;SDS011;2273;48.464;11.926;2022-09-03T14:47:19;2.80;;;2.30;;
4521;SDS011;2273;48.464;11.926;2022-09-03T14:55:55;2.83;;;2.40;;
4521;SDS011;2273;48.464;11.926;2022-09-03T15:01:43;3.37;;;2.20;;
4521;SDS011;2273;48.464;11.926;2022-09-03T15:10:02;3.10;;;2.63;;
4521;SDS011;2273;48.464;11.926;2022-09-03T15:12:39;3.60;;;2.57;;
4521;SDS011;2273;48.464;11.926;2022-09-03T15:17:59;3.87;;;2.80;;
4521;SDS011;2273;48.464;11.926;2022-09-03T15:34:34;2.20;;;1.87;;
4521;SDS011;2273;48.464;11.926;2022-09-03T15:37:17;12.40;;;1.97;;
4521;SDS011;2273;48.464;11.926;2022-09-03T15:39:45;2.80;;;1.80;;
4521;SDS011;2273;48.464;11.926;2022-09-03T15:42:23;9.53;;;2.03;;
4521;SDS011;2273;48.464;11.926;2022-09-03T15:44:52;6.23;;;2.10;;
4521;SDS011;2273;48.464;11.926;2022-09-03T15:50:14;6.10;;;2.20;;
4521;SDS011;2273;48.464;11.926;2022-09-03T15:52:58;3.50;;;2.00;;
4521;SDS011;2273;48.464;11.926;2022-09-03T15:58:04;3.57;;;1.93;;
4521;SDS011;2273;48.464;11.926;2022-09-03T16:03:10;4.07;;;2.30;;
4521;SDS011;2273;48.464;11.926;2022-09-03T16:10:41;3.13;;;1.80;;
4521;SDS011;2273;48.464;11.926;2022-09-03T16:16:26;8.13;;;2.03;;
4521;SDS011;2273;48.464;11.926;2022-09-03T16:21:53;3.57;;;2.20;;
4521;SDS011;2273;48.464;11.926;2022-09-03T16:24:25;6.37;;;2.10;;
4521;SDS011;2273;48.464;11.926;2022-09-03T16:29:39;4.07;;;2.60;;
4521;SDS011;2273;48.464;11.926;2022-09-03T16:32:06;7.20;;;2.80;;
4521;SDS011;2273;48.464;11.926;2022-09-03T16:34:54;8.70;;;3.47;;
4521;SDS011;2273;48.464;11.926;2022-09-03T16:37:45;3.63;;;3.07;;
4521;SDS011;2273;48.464;11.926;2022-09-03T16:43:14;8.00;;;4.20;;
4521;SDS011;2273;48.464;11.926;2022-09-03T16:45:48;8.33;;;3.80;;
4521;SDS011;2273;48.464;11.926;2022-09-03T16:48:37;11.03;;;4.20;;
4521;SDS011;2273;48.464;11.926;2022-09-03T16:56:43;4.30;;;3.40;;
4521;SDS011;2273;48.464;11.926;2022-09-03T16:59:19;14.10;;;4.30;;
4521;SDS011;2273;48.464;11.926;2022-09-03T17:10:21;4.10;;;3.20;;
4521;SDS011;2273;48.464;11.926;2022-09-03T17:16:14;7.13;;;3.70;;
4521;SDS011;2273;48.464;11.926;2022-09-03T17:19:05;9.70;;;4.07;;
4521;SDS011;2273;48.464;11.926;2022-09-03T17:24:47;5.80;;;3.60;;
4521;SDS011;2273;48.464;11.926;2022-09-03T17:27:33;5.90;;;3.40;;
4521;SDS011;2273;48.464;11.926;2022-09-03T17:36:18;9.03;;;2.47;;
4521;SDS011;2273;48.464;11.926;2022-09-03T17:41:52;3.13;;;2.10;;
4521;SDS011;2273;48.464;11.926;2022-09-03T17:44:22;5.43;;;2.40;;
4521;SDS011;2273;48.464;11.926;2022-09-03T17:49:31;4.70;;;2.43;;
4521;SDS011;2273;48.464;11.926;2022-09-03T17:52:19;2.73;;;2.27;;
4521;SDS011;2273;48.464;11.926;2022-09-03T17:54:47;5.87;;;2.40;;
4521;SDS011;2273;48.464;11.926;2022-09-03T17:57:21;2.90;;;1.93;;
4521;SDS011;2273;48.464;11.926;2022-09-03T18:02:24;4.23;;;2.97;;
4521;SDS011;2273;48.464;11.926;2022-09-03T18:10:26;2.70;;;2.10;;
4521;SDS011;2273;48.464;11.926;2022-09-03T18:13:18;3.97;;;2.20;;
4521;SDS011;2273;48.464;11.926;2022-09-03T18:16:05;2.87;;;2.20;;
4521;SDS011;2273;48.464;11.926;2022-09-03T18:18:32;3.53;;;2.40;;
4521;SDS011;2273;48.464;11.926;2022-09-03T18:21:00;3.73;;;2.27;;
4521;SDS011;2273;48.464;11.926;2022-09-03T18:23:53;5.20;;;2.47;;
4521;SDS011;2273;48.464;11.926;2022-09-03T18:26:46;5.33;;;2.47;;
4521;SDS011;2273;48.464;11.926;2022-09-03T18:29:37;3.60;;;2.07;;
4521;SDS011;2273;48.464;11.926;2022-09-03T18:32:25;3.30;;;2.60;;
4521;SDS011;2273;48.464;11.926;2022-09-03T18:35:09;5.50;;;2.77;;
4521;SDS011;2273;48.464;11.926;2022-09-03T18:37:54;3.07;;;2.30;;
4521;SDS011;2273;48.464;11.926;2022-09-03T18:40:42;3.33;;;2.47;;
4521;SDS011;2273;48.464;11.926;2022-09-03T18:43:33;5.33;;;2.80;;
4521;SDS011;2273;48.464;11.926;2022-09-03T18:49:20;5.03;;;2.47;;
4521;SDS011;2273;48.464;11.926;2022-09-03T19:01:08;7.63;;;2.77;;
4521;SDS011;2273;48.464;11.926;2022-09-03T19:06:52;3.33;;;2.73;;
4521;SDS011;2273;48.464;11.926;2022-09-03T19:09:54;6.37;;;2.40;;
4521;SDS011;2273;48.464;11.926;2022-09-03T19:12:47;3.23;;;2.27;;
4521;SDS011;2273;48.464;11.926;2022-09-03T19:22:08;3.80;;;2.83;;
4521;SDS011;2273;48.464;11.926;2022-09-03T19:25:04;4.93;;;2.50;;
4521;SDS011;2273;48.464;11.926;2022-09-03T19:27:56;3.93;;;2.70;;
4521;SDS011;2273;48.464;11.926;2022-09-03T19:30:51;4.17;;;2.27;;
4521;SDS011;2273;48.464;11.926;2022-09-03T19:37:12;12.43;;;2.37;;
4521;SDS011;2273;48.464;11.926;2022-09-03T19:46:11;2.93;;;2.57;;
4521;SDS011;2273;48.464;11.926;2022-09-03T19:55:17;3.73;;;3.00;;
4521;SDS011;2273;48.464;11.926;2022-09-03T19:58:05;3.40;;;2.43;;
4521;SDS011;2273;48.464;11.926;2022-09-03T20:00:50;3.37;;;2.60;;
4521;SDS011;2273;48.464;11.926;2022-09-03T20:03:34;4.80;;;2.63;;
4521;SDS011;2273;48.464;11.926;2022-09-03T20:06:18;5.30;;;3.17;;
4521;SDS011;2273;48.464;11.926;2022-09-03T20:09:06;2.63;;;2.33;;
4521;SDS011;2273;48.464;11.926;2022-09-03T20:11:51;3.07;;;2.43;;